Oceanside, Washington
Current Conditions -  °F | °C
As of 11:55 PM on Thursday 27 Nov 2014 (Local Time) from KAST Reporting Station
Overcast Overcast  
Wind Chill: 56°   Ceiling: 1900
Heat Index: 56°   Visibility: 10mi
Dew Point: 53°   Wind: 10mph
Humidity: 90%   Direction: 260°W
Pressure: 29.75"   Gusts: 22mph
Location:  46.3832°N, 124.042°W
Report Text: KAST 280755Z AUTO 26009G19KT 220V290 10SM SCT007 BKN019 OVC026 13/12 A2975 RMK AO2 PK WND 22026/0723 CIG 006 RWY 08 SLP073 T01330117 401440128
Loading
Personal Weather Stations






























Interactive Weather Map New forecast layout! Learn more

10-Day Weather Forecast

Advertisements
Track Severe Weather on mobile